sensor_id;sensor_type;location;lat;lon;timestamp;temperature;humidity
13892;DHT22;7016;48.172;8.058;2023-04-01T00:00:23;9.20;99.90
13892;DHT22;7016;48.172;8.058;2023-04-01T00:02:49;9.20;99.90
13892;DHT22;7016;48.172;8.058;2023-04-01T00:05:15;9.00;99.90
13892;DHT22;7016;48.172;8.058;2023-04-01T00:07:42;8.90;99.90
13892;DHT22;7016;48.172;8.058;2023-04-01T00:10:10;9.10;99.90
13892;DHT22;7016;48.172;8.058;2023-04-01T00:12:37;9.10;99.90
13892;DHT22;7016;48.172;8.058;2023-04-01T00:15:06;9.00;99.90
13892;DHT22;7016;48.172;8.058;2023-04-01T00:17:32;9.00;99.90
13892;DHT22;7016;48.172;8.058;2023-04-01T00:19:58;9.00;99.90
13892;DHT22;7016;48.172;8.058;2023-04-01T00:22:25;9.00;99.90
13892;DHT22;7016;48.172;8.058;2023-04-01T00:24:51;9.00;99.90
13892;DHT22;7016;48.172;8.058;2023-04-01T00:27:17;9.00;99.90
13892;DHT22;7016;48.172;8.058;2023-04-01T00:29:44;9.00;99.90
13892;DHT22;7016;48.172;8.058;2023-04-01T00:32:11;8.90;99.90
13892;DHT22;7016;48.172;8.058;2023-04-01T00:34:36;8.90;99.90
13892;DHT22;7016;48.172;8.058;2023-04-01T00:37:03;8.90;99.90
13892;DHT22;7016;48.172;8.058;2023-04-01T00:39:30;8.80;99.90
13892;DHT22;7016;48.172;8.058;2023-04-01T00:41:57;8.90;99.90
13892;DHT22;7016;48.172;8.058;2023-04-01T00:44:25;8.70;99.90
13892;DHT22;7016;48.172;8.058;2023-04-01T00:46:51;8.70;99.90
13892;DHT22;7016;48.172;8.058;2023-04-01T00:49:22;8.70;99.90
13892;DHT22;7016;48.172;8.058;2023-04-01T00:51:51;8.80;99.90
13892;DHT22;7016;48.172;8.058;2023-04-01T00:54:19;8.80;99.90
13892;DHT22;7016;48.172;8.058;2023-04-01T00:56:52;8.90;99.90
13892;DHT22;7016;48.172;8.058;2023-04-01T00:59:27;9.00;99.90
13892;DHT22;7016;48.172;8.058;2023-04-01T01:01:55;8.90;99.90
13892;DHT22;7016;48.172;8.058;2023-04-01T01:04:29;8.90;99.90
13892;DHT22;7016;48.172;8.058;2023-04-01T01:31:20;8.70;99.90
13892;DHT22;7016;48.172;8.058;2023-04-01T01:34:32;8.70;99.90
13892;DHT22;7016;48.172;8.058;2023-04-01T01:36:39;8.60;99.90
13892;DHT22;7016;48.172;8.058;2023-04-01T01:39:07;8.70;99.90
13892;DHT22;7016;48.172;8.058;2023-04-01T01:41:35;8.60;99.90
13892;DHT22;7016;48.172;8.058;2023-04-01T01:44:05;8.60;99.90
13892;DHT22;7016;48.172;8.058;2023-04-01T01:46:31;8.50;99.90
13892;DHT22;7016;48.172;8.058;2023-04-01T01:48:58;8.50;99.90
13892;DHT22;7016;48.172;8.058;2023-04-01T01:51:26;8.50;99.90
13892;DHT22;7016;48.172;8.058;2023-04-01T01:53:53;8.60;99.90
13892;DHT22;7016;48.172;8.058;2023-04-01T01:56:21;8.60;99.90
13892;DHT22;7016;48.172;8.058;2023-04-01T01:58:56;8.70;99.90
13892;DHT22;7016;48.172;8.058;2023-04-01T02:01:29;8.50;99.90
13892;DHT22;7016;48.172;8.058;2023-04-01T02:03:58;8.60;99.90
13892;DHT22;7016;48.172;8.058;2023-04-01T02:06:27;8.60;99.90
13892;DHT22;7016;48.172;8.058;2023-04-01T02:08:55;8.70;99.90
13892;DHT22;7016;48.172;8.058;2023-04-01T02:11:27;8.60;99.90
13892;DHT22;7016;48.172;8.058;2023-04-01T02:14:17;8.60;99.90
13892;DHT22;7016;48.172;8.058;2023-04-01T02:19:18;8.90;99.90
13892;DHT22;7016;48.172;8.058;2023-04-01T02:21:50;8.80;99.90
13892;DHT22;7016;48.172;8.058;2023-04-01T02:24:20;8.90;99.90
13892;DHT22;7016;48.172;8.058;2023-04-01T02:26:49;8.80;99.90
13892;DHT22;7016;48.172;8.058;2023-04-01T02:29:17;8.90;99.90
13892;DHT22;7016;48.172;8.058;2023-04-01T02:31:43;8.80;99.90
13892;DHT22;7016;48.172;8.058;2023-04-01T02:34:09;8.80;99.90
13892;DHT22;7016;48.172;8.058;2023-04-01T02:36:36;8.80;99.90
13892;DHT22;7016;48.172;8.058;2023-04-01T02:39:02;8.90;99.90
13892;DHT22;7016;48.172;8.058;2023-04-01T02:41:30;8.70;99.90
13892;DHT22;7016;48.172;8.058;2023-04-01T02:43:56;8.70;99.90
13892;DHT22;7016;48.172;8.058;2023-04-01T02:46:24;8.60;99.90
13892;DHT22;7016;48.172;8.058;2023-04-01T02:48:49;8.70;99.90
13892;DHT22;7016;48.172;8.058;2023-04-01T02:51:15;8.70;99.90
13892;DHT22;7016;48.172;8.058;2023-04-01T02:53:41;8.70;99.90
13892;DHT22;7016;48.172;8.058;2023-04-01T02:56:07;8.70;99.90
13892;DHT22;7016;48.172;8.058;2023-04-01T02:58:32;8.70;99.90
13892;DHT22;7016;48.172;8.058;2023-04-01T03:00:58;8.70;99.90
13892;DHT22;7016;48.172;8.058;2023-04-01T03:03:25;8.60;99.90
13892;DHT22;7016;48.172;8.058;2023-04-01T03:05:50;8.70;99.90
13892;DHT22;7016;48.172;8.058;2023-04-01T03:08:16;8.70;99.90
13892;DHT22;7016;48.172;8.058;2023-04-01T03:10:42;8.80;99.90
13892;DHT22;7016;48.172;8.058;2023-04-01T03:13:07;8.80;99.90
13892;DHT22;7016;48.172;8.058;2023-04-01T03:15:33;8.60;99.90
13892;DHT22;7016;48.172;8.058;2023-04-01T03:17:59;8.60;99.90
13892;DHT22;7016;48.172;8.058;2023-04-01T03:20:25;8.60;99.90
13892;DHT22;7016;48.172;8.058;2023-04-01T03:22:52;8.60;99.90
13892;DHT22;7016;48.172;8.058;2023-04-01T03:25:18;8.60;99.90
13892;DHT22;7016;48.172;8.058;2023-04-01T03:27:44;8.50;99.90
13892;DHT22;7016;48.172;8.058;2023-04-01T03:30:10;8.50;99.90
13892;DHT22;7016;48.172;8.058;2023-04-01T03:32:36;8.50;99.90
13892;DHT22;7016;48.172;8.058;2023-04-01T03:35:02;8.40;99.90
13892;DHT22;7016;48.172;8.058;2023-04-01T03:37:28;8.40;99.90
13892;DHT22;7016;48.172;8.058;2023-04-01T03:39:54;8.40;99.90
13892;DHT22;7016;48.172;8.058;2023-04-01T03:42:20;8.50;99.90
13892;DHT22;7016;48.172;8.058;2023-04-01T03:44:46;8.60;99.90
13892;DHT22;7016;48.172;8.058;2023-04-01T03:47:11;8.50;99.90
13892;DHT22;7016;48.172;8.058;2023-04-01T03:49:37;8.60;99.90
13892;DHT22;7016;48.172;8.058;2023-04-01T03:52:03;8.50;99.90
13892;DHT22;7016;48.172;8.058;2023-04-01T03:54:28;8.40;99.90
13892;DHT22;7016;48.172;8.058;2023-04-01T03:56:54;8.50;99.90
13892;DHT22;7016;48.172;8.058;2023-04-01T03:59:20;8.50;99.90
13892;DHT22;7016;48.172;8.058;2023-04-01T04:01:47;8.40;99.90
13892;DHT22;7016;48.172;8.058;2023-04-01T04:04:13;8.40;99.90
13892;DHT22;7016;48.172;8.058;2023-04-01T04:06:40;8.30;99.90
13892;DHT22;7016;48.172;8.058;2023-04-01T04:09:05;8.30;99.90
13892;DHT22;7016;48.172;8.058;2023-04-01T04:11:31;8.20;99.90
13892;DHT22;7016;48.172;8.058;2023-04-01T04:13:58;8.20;99.90
13892;DHT22;7016;48.172;8.058;2023-04-01T04:16:24;8.30;99.90
13892;DHT22;7016;48.172;8.058;2023-04-01T04:18:50;8.30;99.90
13892;DHT22;7016;48.172;8.058;2023-04-01T04:21:16;8.30;99.90
13892;DHT22;7016;48.172;8.058;2023-04-01T04:23:42;8.40;99.90
13892;DHT22;7016;48.172;8.058;2023-04-01T04:26:11;8.30;99.90
13892;DHT22;7016;48.172;8.058;2023-04-01T04:28:37;8.40;99.90
13892;DHT22;7016;48.172;8.058;2023-04-01T04:31:03;8.30;99.90
13892;DHT22;7016;48.172;8.058;2023-04-01T04:33:30;8.30;99.90
13892;DHT22;7016;48.172;8.058;2023-04-01T04:35:57;8.30;99.90
13892;DHT22;7016;48.172;8.058;2023-04-01T04:38:23;8.30;99.90
13892;DHT22;7016;48.172;8.058;2023-04-01T04:40:49;8.30;99.90
13892;DHT22;7016;48.172;8.058;2023-04-01T04:43:16;8.30;99.90
13892;DHT22;7016;48.172;8.058;2023-04-01T04:45:42;8.30;99.90
13892;DHT22;7016;48.172;8.058;2023-04-01T04:48:09;8.30;99.90
13892;DHT22;7016;48.172;8.058;2023-04-01T04:50:36;8.30;99.90
13892;DHT22;7016;48.172;8.058;2023-04-01T04:53:02;8.40;99.90
13892;DHT22;7016;48.172;8.058;2023-04-01T04:55:28;8.40;99.90
13892;DHT22;7016;48.172;8.058;2023-04-01T04:57:54;8.40;99.90
13892;DHT22;7016;48.172;8.058;2023-04-01T05:00:19;8.20;99.90
13892;DHT22;7016;48.172;8.058;2023-04-01T05:02:46;8.20;99.90
13892;DHT22;7016;48.172;8.058;2023-04-01T05:05:11;8.40;99.90
13892;DHT22;7016;48.172;8.058;2023-04-01T05:07:37;8.40;99.90
13892;DHT22;7016;48.172;8.058;2023-04-01T05:10:03;8.30;99.90
13892;DHT22;7016;48.172;8.058;2023-04-01T05:12:29;8.40;99.90
13892;DHT22;7016;48.172;8.058;2023-04-01T05:14:56;8.40;99.90
13892;DHT22;7016;48.172;8.058;2023-04-01T05:17:21;8.40;99.90
13892;DHT22;7016;48.172;8.058;2023-04-01T05:19:47;8.40;99.90
13892;DHT22;7016;48.172;8.058;2023-04-01T05:22:13;8.40;99.90
13892;DHT22;7016;48.172;8.058;2023-04-01T05:24:38;8.40;99.90
13892;DHT22;7016;48.172;8.058;2023-04-01T05:27:04;8.50;99.90
13892;DHT22;7016;48.172;8.058;2023-04-01T05:29:30;8.50;99.90
13892;DHT22;7016;48.172;8.058;2023-04-01T05:31:55;8.40;99.90
13892;DHT22;7016;48.172;8.058;2023-04-01T05:34:21;8.40;99.90
13892;DHT22;7016;48.172;8.058;2023-04-01T05:36:47;8.40;99.90
13892;DHT22;7016;48.172;8.058;2023-04-01T05:39:12;8.40;99.90
13892;DHT22;7016;48.172;8.058;2023-04-01T05:41:38;8.50;99.90
13892;DHT22;7016;48.172;8.058;2023-04-01T05:44:05;8.50;99.90
13892;DHT22;7016;48.172;8.058;2023-04-01T05:46:31;8.50;99.90
13892;DHT22;7016;48.172;8.058;2023-04-01T05:48:57;8.50;99.90
13892;DHT22;7016;48.172;8.058;2023-04-01T05:51:23;8.40;99.90
13892;DHT22;7016;48.172;8.058;2023-04-01T05:53:49;8.50;99.90
13892;DHT22;7016;48.172;8.058;2023-04-01T05:56:15;8.50;99.90
13892;DHT22;7016;48.172;8.058;2023-04-01T05:58:40;8.50;99.90
13892;DHT22;7016;48.172;8.058;2023-04-01T06:01:09;8.50;99.90
13892;DHT22;7016;48.172;8.058;2023-04-01T06:03:36;8.50;99.90
13892;DHT22;7016;48.172;8.058;2023-04-01T06:06:02;8.50;99.90
13892;DHT22;7016;48.172;8.058;2023-04-01T06:08:30;8.60;99.90
13892;DHT22;7016;48.172;8.058;2023-04-01T06:22:09;8.60;99.90
13892;DHT22;7016;48.172;8.058;2023-04-01T06:32:59;8.70;99.90
13892;DHT22;7016;48.172;8.058;2023-04-01T06:52:00;8.70;99.90
13892;DHT22;7016;48.172;8.058;2023-04-01T06:54:38;8.80;99.90
13892;DHT22;7016;48.172;8.058;2023-04-01T06:59:55;8.70;99.90
13892;DHT22;7016;48.172;8.058;2023-04-01T07:02:43;8.80;99.90
13892;DHT22;7016;48.172;8.058;2023-04-01T07:05:11;8.80;99.90
13892;DHT22;7016;48.172;8.058;2023-04-01T07:07:43;8.80;99.90
13892;DHT22;7016;48.172;8.058;2023-04-01T07:10:23;8.80;99.90
13892;DHT22;7016;48.172;8.058;2023-04-01T07:12:54;8.90;99.90
13892;DHT22;7016;48.172;8.058;2023-04-01T07:18:05;8.80;99.90
13892;DHT22;7016;48.172;8.058;2023-04-01T07:20:37;8.50;99.90
13892;DHT22;7016;48.172;8.058;2023-04-01T07:23:07;8.50;99.90
13892;DHT22;7016;48.172;8.058;2023-04-01T07:25:43;8.70;99.90
13892;DHT22;7016;48.172;8.058;2023-04-01T07:28:14;8.70;99.90
13892;DHT22;7016;48.172;8.058;2023-04-01T07:36:15;8.80;99.90
13892;DHT22;7016;48.172;8.058;2023-04-01T07:39:06;8.70;99.90
13892;DHT22;7016;48.172;8.058;2023-04-01T07:44:52;8.70;99.90
13892;DHT22;7016;48.172;8.058;2023-04-01T07:57:41;8.80;99.90
13892;DHT22;7016;48.172;8.058;2023-04-01T08:00:27;8.80;99.90
13892;DHT22;7016;48.172;8.058;2023-04-01T08:06:25;8.90;99.90
13892;DHT22;7016;48.172;8.058;2023-04-01T08:09:18;8.90;99.90
13892;DHT22;7016;48.172;8.058;2023-04-01T08:14:44;8.90;99.90
13892;DHT22;7016;48.172;8.058;2023-04-01T08:20:26;8.90;99.90
13892;DHT22;7016;48.172;8.058;2023-04-01T08:22:59;8.90;99.90
13892;DHT22;7016;48.172;8.058;2023-04-01T08:25:28;8.90;99.90
13892;DHT22;7016;48.172;8.058;2023-04-01T08:33:15;8.80;99.90
13892;DHT22;7016;48.172;8.058;2023-04-01T08:35:59;8.80;99.90
13892;DHT22;7016;48.172;8.058;2023-04-01T08:38:54;8.80;99.90
13892;DHT22;7016;48.172;8.058;2023-04-01T08:46:55;8.80;99.90
13892;DHT22;7016;48.172;8.058;2023-04-01T08:49:46;8.90;99.90
13892;DHT22;7016;48.172;8.058;2023-04-01T08:52:34;8.60;99.90
13892;DHT22;7016;48.172;8.058;2023-04-01T08:58:11;8.70;99.90
13892;DHT22;7016;48.172;8.058;2023-04-01T09:01:24;8.80;99.90
13892;DHT22;7016;48.172;8.058;2023-04-01T09:04:57;8.80;99.90
13892;DHT22;7016;48.172;8.058;2023-04-01T09:13:33;8.90;99.90
13892;DHT22;7016;48.172;8.058;2023-04-01T09:19:05;8.90;99.90
13892;DHT22;7016;48.172;8.058;2023-04-01T09:24:41;8.90;99.90
13892;DHT22;7016;48.172;8.058;2023-04-01T09:38:34;8.80;99.90
13892;DHT22;7016;48.172;8.058;2023-04-01T09:41:07;8.80;99.90
13892;DHT22;7016;48.172;8.058;2023-04-01T09:44:03;8.80;99.90
13892;DHT22;7016;48.172;8.058;2023-04-01T10:21:04;8.80;99.90
13892;DHT22;7016;48.172;8.058;2023-04-01T10:31:45;8.80;99.90
13892;DHT22;7016;48.172;8.058;2023-04-01T10:40:27;8.90;99.90
13892;DHT22;7016;48.172;8.058;2023-04-01T11:30:26;9.00;99.90
13892;DHT22;7016;48.172;8.058;2023-04-01T11:44:03;9.10;99.90
13892;DHT22;7016;48.172;8.058;2023-04-01T12:01:15;9.10;99.90
13892;DHT22;7016;48.172;8.058;2023-04-01T12:09:46;9.00;99.90
13892;DHT22;7016;48.172;8.058;2023-04-01T12:12:24;9.10;99.90
13892;DHT22;7016;48.172;8.058;2023-04-01T12:18:05;9.30;99.90
13892;DHT22;7016;48.172;8.058;2023-04-01T12:20:37;9.20;99.90
13892;DHT22;7016;48.172;8.058;2023-04-01T12:26:04;9.20;99.90
13892;DHT22;7016;48.172;8.058;2023-04-01T12:28:44;9.20;99.90
13892;DHT22;7016;48.172;8.058;2023-04-01T12:36:30;9.40;99.90
13892;DHT22;7016;48.172;8.058;2023-04-01T12:55:41;9.50;99.90
13892;DHT22;7016;48.172;8.058;2023-04-01T13:01:06;9.40;99.90
13892;DHT22;7016;48.172;8.058;2023-04-01T13:06:53;9.40;99.90
13892;DHT22;7016;48.172;8.058;2023-04-01T13:17:53;9.50;99.90
13892;DHT22;7016;48.172;8.058;2023-04-01T13:26:32;9.40;99.90
13892;DHT22;7016;48.172;8.058;2023-04-01T13:31:32;9.50;99.90
13892;DHT22;7016;48.172;8.058;2023-04-01T13:36:56;9.70;99.90
13892;DHT22;7016;48.172;8.058;2023-04-01T13:42:28;9.70;99.90
13892;DHT22;7016;48.172;8.058;2023-04-01T13:45:29;9.90;99.90
13892;DHT22;7016;48.172;8.058;2023-04-01T14:06:28;10.10;99.90
13892;DHT22;7016;48.172;8.058;2023-04-01T14:09:08;10.10;99.90
13892;DHT22;7016;48.172;8.058;2023-04-01T14:26:07;10.20;99.90
13892;DHT22;7016;48.172;8.058;2023-04-01T14:29:08;10.30;99.90
13892;DHT22;7016;48.172;8.058;2023-04-01T14:34:35;10.40;99.90
13892;DHT22;7016;48.172;8.058;2023-04-01T14:50:55;10.80;99.90
13892;DHT22;7016;48.172;8.058;2023-04-01T14:53:35;10.90;99.90
13892;DHT22;7016;48.172;8.058;2023-04-01T14:56:04;11.00;99.90
13892;DHT22;7016;48.172;8.058;2023-04-01T14:58:46;11.00;99.90
13892;DHT22;7016;48.172;8.058;2023-04-01T15:23:31;11.00;99.90
13892;DHT22;7016;48.172;8.058;2023-04-01T15:26:12;10.90;99.90
13892;DHT22;7016;48.172;8.058;2023-04-01T15:42:42;10.80;99.90
13892;DHT22;7016;48.172;8.058;2023-04-01T15:45:58;10.50;99.90
13892;DHT22;7016;48.172;8.058;2023-04-01T15:48:39;10.50;99.90
13892;DHT22;7016;48.172;8.058;2023-04-01T15:51:10;10.50;99.90
13892;DHT22;7016;48.172;8.058;2023-04-01T15:56:38;10.70;99.90
13892;DHT22;7016;48.172;8.058;2023-04-01T16:05:07;10.70;99.90
13892;DHT22;7016;48.172;8.058;2023-04-01T16:10:27;10.80;99.90
13892;DHT22;7016;48.172;8.058;2023-04-01T16:16:31;10.70;99.90
13892;DHT22;7016;48.172;8.058;2023-04-01T16:21:53;10.50;99.90
13892;DHT22;7016;48.172;8.058;2023-04-01T16:24:44;10.40;99.90
13892;DHT22;7016;48.172;8.058;2023-04-01T16:27:29;10.50;99.90
13892;DHT22;7016;48.172;8.058;2023-04-01T16:36:08;10.40;99.90
13892;DHT22;7016;48.172;8.058;2023-04-01T16:38:51;10.40;99.90
13892;DHT22;7016;48.172;8.058;2023-04-01T16:41:24;10.40;99.90
13892;DHT22;7016;48.172;8.058;2023-04-01T16:43:55;10.20;99.90
13892;DHT22;7016;48.172;8.058;2023-04-01T16:46:58;10.30;99.90
13892;DHT22;7016;48.172;8.058;2023-04-01T16:55:02;10.50;99.90
13892;DHT22;7016;48.172;8.058;2023-04-01T17:00:28;10.50;99.90
13892;DHT22;7016;48.172;8.058;2023-04-01T17:03:14;10.50;99.90
13892;DHT22;7016;48.172;8.058;2023-04-01T17:06:11;10.50;99.90
13892;DHT22;7016;48.172;8.058;2023-04-01T17:08:41;10.50;99.90
13892;DHT22;7016;48.172;8.058;2023-04-01T17:17:08;10.40;99.90
13892;DHT22;7016;48.172;8.058;2023-04-01T17:20:12;10.40;99.90
13892;DHT22;7016;48.172;8.058;2023-04-01T17:28:05;10.40;99.90
13892;DHT22;7016;48.172;8.058;2023-04-01T17:39:15;10.40;99.90
13892;DHT22;7016;48.172;8.058;2023-04-01T17:42:00;10.50;99.90
13892;DHT22;7016;48.172;8.058;2023-04-01T17:47:13;10.40;99.90
13892;DHT22;7016;48.172;8.058;2023-04-01T17:49:57;10.50;99.90
13892;DHT22;7016;48.172;8.058;2023-04-01T17:52:47;10.40;99.90
13892;DHT22;7016;48.172;8.058;2023-04-01T17:55:41;10.30;99.90
13892;DHT22;7016;48.172;8.058;2023-04-01T17:58:44;10.30;99.90
13892;DHT22;7016;48.172;8.058;2023-04-01T18:12:31;10.30;99.90
13892;DHT22;7016;48.172;8.058;2023-04-01T18:23:47;10.50;99.90
13892;DHT22;7016;48.172;8.058;2023-04-01T18:26:24;10.50;99.90
13892;DHT22;7016;48.172;8.058;2023-04-01T18:28:58;10.40;99.90
13892;DHT22;7016;48.172;8.058;2023-04-01T18:31:32;10.50;99.90
13892;DHT22;7016;48.172;8.058;2023-04-01T18:34:12;10.40;99.90
13892;DHT22;7016;48.172;8.058;2023-04-01T18:36:49;10.40;99.90
13892;DHT22;7016;48.172;8.058;2023-04-01T18:39:37;10.30;99.90
13892;DHT22;7016;48.172;8.058;2023-04-01T18:42:24;10.20;99.90
13892;DHT22;7016;48.172;8.058;2023-04-01T18:54:19;10.30;99.90
13892;DHT22;7016;48.172;8.058;2023-04-01T18:56:37;10.30;99.90
13892;DHT22;7016;48.172;8.058;2023-04-01T18:59:25;10.30;99.90
13892;DHT22;7016;48.172;8.058;2023-04-01T19:02:02;10.20;99.90
13892;DHT22;7016;48.172;8.058;2023-04-01T19:15:40;10.20;99.90
13892;DHT22;7016;48.172;8.058;2023-04-01T19:20:59;10.10;99.90
13892;DHT22;7016;48.172;8.058;2023-04-01T19:41:00;10.00;99.90
13892;DHT22;7016;48.172;8.058;2023-04-01T19:43:53;10.00;99.90
13892;DHT22;7016;48.172;8.058;2023-04-01T19:46:32;10.00;99.90
13892;DHT22;7016;48.172;8.058;2023-04-01T19:51:56;10.00;99.90
13892;DHT22;7016;48.172;8.058;2023-04-01T19:54:49;10.00;99.90
13892;DHT22;7016;48.172;8.058;2023-04-01T19:58:00;10.00;99.90
13892;DHT22;7016;48.172;8.058;2023-04-01T20:00:16;10.00;99.90
13892;DHT22;7016;48.172;8.058;2023-04-01T20:03:10;10.00;99.90
13892;DHT22;7016;48.172;8.058;2023-04-01T20:05:46;9.80;99.90
13892;DHT22;7016;48.172;8.058;2023-04-01T20:22:04;9.80;99.90
13892;DHT22;7016;48.172;8.058;2023-04-01T20:24:41;9.70;99.90
13892;DHT22;7016;48.172;8.058;2023-04-01T20:30:16;9.80;99.90
13892;DHT22;7016;48.172;8.058;2023-04-01T20:33:00;9.80;99.90
13892;DHT22;7016;48.172;8.058;2023-04-01T20:41:25;9.80;99.90
13892;DHT22;7016;48.172;8.058;2023-04-01T20:51:39;9.90;99.90
13892;DHT22;7016;48.172;8.058;2023-04-01T21:07:45;9.70;99.90
13892;DHT22;7016;48.172;8.058;2023-04-01T21:16:15;9.90;99.90
13892;DHT22;7016;48.172;8.058;2023-04-01T21:27:01;9.80;99.90
13892;DHT22;7016;48.172;8.058;2023-04-01T21:35:53;9.60;99.90
13892;DHT22;7016;48.172;8.058;2023-04-01T22:06:24;9.50;99.90
13892;DHT22;7016;48.172;8.058;2023-04-01T22:12:04;9.50;99.90
13892;DHT22;7016;48.172;8.058;2023-04-01T22:14:44;9.50;99.90
13892;DHT22;7016;48.172;8.058;2023-04-01T22:20:25;9.50;99.90
13892;DHT22;7016;48.172;8.058;2023-04-01T22:25:34;9.40;99.90
13892;DHT22;7016;48.172;8.058;2023-04-01T22:28:37;9.40;99.90
13892;DHT22;7016;48.172;8.058;2023-04-01T22:31:05;9.40;99.90
13892;DHT22;7016;48.172;8.058;2023-04-01T22:53:23;9.10;99.90
13892;DHT22;7016;48.172;8.058;2023-04-01T22:55:52;9.10;99.90
13892;DHT22;7016;48.172;8.058;2023-04-01T22:58:34;9.10;99.90
13892;DHT22;7016;48.172;8.058;2023-04-01T23:01:07;9.10;99.90
13892;DHT22;7016;48.172;8.058;2023-04-01T23:03:39;9.00;99.90
13892;DHT22;7016;48.172;8.058;2023-04-01T23:06:06;9.10;99.90
13892;DHT22;7016;48.172;8.058;2023-04-01T23:08:58;9.10;99.90
13892;DHT22;7016;48.172;8.058;2023-04-01T23:11:32;9.00;99.90
13892;DHT22;7016;48.172;8.058;2023-04-01T23:21:58;9.00;99.90
13892;DHT22;7016;48.172;8.058;2023-04-01T23:27:01;9.00;99.90
13892;DHT22;7016;48.172;8.058;2023-04-01T23:29:28;9.10;99.90
13892;DHT22;7016;48.172;8.058;2023-04-01T23:31:59;9.00;99.90
13892;DHT22;7016;48.172;8.058;2023-04-01T23:35:11;9.00;99.90
13892;DHT22;7016;48.172;8.058;2023-04-01T23:37:16;8.90;99.90
13892;DHT22;7016;48.172;8.058;2023-04-01T23:39:46;8.80;99.90
13892;DHT22;7016;48.172;8.058;2023-04-01T23:44:56;8.80;99.90
13892;DHT22;7016;48.172;8.058;2023-04-01T23:47:43;8.80;99.90
13892;DHT22;7016;48.172;8.058;2023-04-01T23:50:14;8.80;99.90
13892;DHT22;7016;48.172;8.058;2023-04-01T23:52:53;8.90;99.90
13892;DHT22;7016;48.172;8.058;2023-04-01T23:55:25;9.10;99.90
13892;DHT22;7016;48.172;8.058;2023-04-01T23:58:12;9.10;99.90
